Tuesday, March 19, 2019, 11:22 PM EDT
Back to Local

KDDH, Bennington Morse State Airport

Location: Bennington, VT, United States Lat: 42.883
Local Time: 11:22 PM EDT ( 3:22 GMT) Lon: -73.25
Time Zone: US/Eastern Elev: 826 ft

Show me the last for .
Show Decoded

2019-03-19 22:54 METAR KDDH 200254Z AUTO 23006KT 10SM CLR M01/M09 A3036 RMK AO2 SLP289 T10111089
                 51004 =
2019-03-19 21:54 METAR KDDH 200154Z AUTO 00000KT 10SM CLR M03/M09 A3035 RMK AO2 SLP289 T10281089
                 =
2019-03-19 20:54 METAR KDDH 200054Z AUTO VRB03KT 10SM CLR M01/M09 A3035 RMK AO2 SLP288 T10111094
                 =
2019-03-19 19:54 METAR KDDH 192354Z AUTO VRB05KT 10SM CLR 01/M10 A3035 RMK AO2 SLP286 T00111100
                 10044 20011 53009 =
2019-03-19 18:54 METAR KDDH 192254Z AUTO 27008KT 240V300 10SM CLR 02/M11 A3033 RMK AO2 SLP282
                 T00171106 =
2019-03-19 17:54 METAR KDDH 192154Z AUTO 26005G15KT 10SM FEW060 03/M10 A3032 RMK AO2 SLP277
                 T00331100 =
2019-03-19 16:54 METAR KDDH 192054Z AUTO 25008KT 230V310 10SM BKN060 BKN070 04/M11 A3032 RMK AO2
                 SLP275 T00391106 56012 =
2019-03-19 15:54 METAR KDDH 191954Z AUTO 29009G14KT 270V330 10SM FEW055 03/M09 A3032 RMK AO2
                 SLP277 T00281094 =
2019-03-19 14:54 METAR KDDH 191854Z AUTO 28011G18KT 10SM SCT060 02/M11 A3033 RMK AO2 SLP280
                 T00221106 =
2019-03-19 13:54 METAR KDDH 191754Z AUTO 29007KT 250V320 10SM BKN055 03/M11 A3035 RMK AO2 SLP287
                 T00281106 10033 21044 58003 =
2019-03-19 12:54 METAR KDDH 191654Z AUTO VRB06G14KT 10SM SCT050 02/M11 A3036 RMK AO2 SLP291
                 T00171106 =
2019-03-19 11:54 METAR KDDH 191554Z AUTO VRB06KT 10SM SCT049 01/M11 A3036 RMK AO2 SLP291
                 T00111106 =
2019-03-19 10:54 METAR KDDH 191454Z AUTO 33007KT 10SM CLR 01/M08 A3036 RMK AO2 SLP291 T00111083
                 51007 =
2019-03-19 10:06 METAR KDDH 191406Z AUTO VRB03KT 10SM SCT026 M01/M08 A3036 RMK AO2 T10061078 =
2019-03-19 09:54 METAR KDDH 191354Z AUTO 30007KT 270V330 10SM BKN026 M01/M07 A3036 RMK AO2 SLP289
                 T10061072 =
2019-03-19 09:06 METAR KDDH 191306Z AUTO VRB03KT 10SM BKN018 M01/M06 A3035 RMK AO2 T10111061 =
2019-03-19 08:54 METAR KDDH 191254Z AUTO VRB04KT 10SM SCT016 M02/M06 A3035 RMK AO2 SLP287
                 T10221061 =
2019-03-19 07:54 METAR KDDH 191154Z AUTO 00000KT 10SM FEW014 BKN032 M04/M07 A3034 RMK AO2 SLP284
                 T10441072 11011 21050 53016 =
2019-03-19 06:54 METAR KDDH 191054Z AUTO 00000KT 10SM CLR M05/M08 A3032 RMK AO2 SLP278 T10501078
                 =
2019-03-19 05:54 METAR KDDH 190954Z AUTO 21005KT 10SM CLR M04/M07 A3030 RMK AO2 SLP271 T10391067
                 =
2019-03-19 04:54 METAR KDDH 190854Z AUTO VRB03KT 10SM FEW060 M03/M06 A3029 RMK AO2 SLP267
                 T10281061 53003 =
2019-03-19 03:54 METAR KDDH 190754Z AUTO 25006KT 10SM FEW041 OVC060 M02/M06 A3028 RMK AO2 SLP264
                 T10221056 =
2019-03-19 02:54 METAR KDDH 190654Z AUTO 23009KT 10SM FEW024 BKN040 OVC050 M02/M06 A3028 RMK AO2
                 SLP264 T10171061 =
2019-03-19 02:36 METAR KDDH 190636Z AUTO 25006KT 10SM BKN024 BKN035 BKN050 M01/M06 A3028 RMK AO2
                 T10111061 =
2019-03-19 01:54 METAR KDDH 190554Z AUTO 23006KT 10SM SCT045 OVC055 M01/M07 A3028 RMK AO2 SLP262
                 T10111067 10006 21022 53004 =
2019-03-19 00:54 METAR KDDH 190454Z AUTO 22006KT 10SM BKN050 OVC070 M01/M07 A3027 RMK AO2 SLP260
                 T10111067 400281056 =
2019-03-18 23:54 METAR KDDH 190354Z AUTO 22005KT 10SM BKN070 BKN080 M02/M08 A3026 RMK AO2 SLP258
                 T10171078 =

Support USWX by starting your Amazon purchase here.